sensor_id;sensor_type;location;lat;lon;timestamp;P1;durP1;ratioP1;P2;durP2;ratioP2
71083;SDS011;58741;52.672;13.548;2023-02-28T00:00:27;1.25;;;0.95;;
71083;SDS011;58741;52.672;13.548;2023-02-28T00:02:53;1.90;;;0.85;;
71083;SDS011;58741;52.672;13.548;2023-02-28T00:05:21;1.30;;;1.00;;
71083;SDS011;58741;52.672;13.548;2023-02-28T00:07:47;1.45;;;0.88;;
71083;SDS011;58741;52.672;13.548;2023-02-28T00:10:15;1.10;;;1.00;;
71083;SDS011;58741;52.672;13.548;2023-02-28T00:12:45;0.50;;;0.50;;
71083;SDS011;58741;52.672;13.548;2023-02-28T00:15:11;0.90;;;0.63;;
71083;SDS011;58741;52.672;13.548;2023-02-28T00:17:37;1.13;;;0.60;;
71083;SDS011;58741;52.672;13.548;2023-02-28T00:20:04;1.33;;;0.95;;
71083;SDS011;58741;52.672;13.548;2023-02-28T00:22:35;1.02;;;0.73;;
71083;SDS011;58741;52.672;13.548;2023-02-28T00:25:02;0.70;;;0.50;;
71083;SDS011;58741;52.672;13.548;2023-02-28T00:27:28;1.05;;;0.70;;
71083;SDS011;58741;52.672;13.548;2023-02-28T00:29:54;2.05;;;0.90;;
71083;SDS011;58741;52.672;13.548;2023-02-28T00:32:20;1.20;;;0.70;;
71083;SDS011;58741;52.672;13.548;2023-02-28T00:34:45;0.50;;;0.50;;
71083;SDS011;58741;52.672;13.548;2023-02-28T00:37:11;0.63;;;0.50;;
71083;SDS011;58741;52.672;13.548;2023-02-28T00:39:37;0.68;;;0.68;;
71083;SDS011;58741;52.672;13.548;2023-02-28T00:42:04;1.15;;;0.93;;
71083;SDS011;58741;52.672;13.548;2023-02-28T00:44:31;0.50;;;0.50;;
71083;SDS011;58741;52.672;13.548;2023-02-28T00:46:56;1.10;;;0.30;;
71083;SDS011;58741;52.672;13.548;2023-02-28T00:49:23;0.63;;;0.52;;
71083;SDS011;58741;52.672;13.548;2023-02-28T00:51:50;0.50;;;0.50;;
71083;SDS011;58741;52.672;13.548;2023-02-28T00:54:16;0.73;;;0.70;;
71083;SDS011;58741;52.672;13.548;2023-02-28T00:56:41;1.02;;;0.60;;
71083;SDS011;58741;52.672;13.548;2023-02-28T00:59:07;0.88;;;0.82;;
71083;SDS011;58741;52.672;13.548;2023-02-28T01:01:33;0.75;;;0.50;;
71083;SDS011;58741;52.672;13.548;2023-02-28T01:03:59;2.38;;;0.77;;
71083;SDS011;58741;52.672;13.548;2023-02-28T01:06:25;0.50;;;0.50;;
71083;SDS011;58741;52.672;13.548;2023-02-28T01:08:50;0.65;;;0.50;;
71083;SDS011;58741;52.672;13.548;2023-02-28T01:11:16;0.50;;;0.47;;
71083;SDS011;58741;52.672;13.548;2023-02-28T01:13:43;0.70;;;0.70;;
71083;SDS011;58741;52.672;13.548;2023-02-28T01:16:11;1.27;;;0.75;;
71083;SDS011;58741;52.672;13.548;2023-02-28T01:18:37;0.45;;;0.45;;
71083;SDS011;58741;52.672;13.548;2023-02-28T01:21:04;0.43;;;0.43;;
71083;SDS011;58741;52.672;13.548;2023-02-28T01:23:31;0.73;;;0.73;;
71083;SDS011;58741;52.672;13.548;2023-02-28T01:25:57;0.88;;;0.57;;
71083;SDS011;58741;52.672;13.548;2023-02-28T01:28:22;0.98;;;0.65;;
71083;SDS011;58741;52.672;13.548;2023-02-28T01:30:49;0.95;;;0.57;;
71083;SDS011;58741;52.672;13.548;2023-02-28T01:33:15;0.35;;;0.35;;
71083;SDS011;58741;52.672;13.548;2023-02-28T01:35:41;0.47;;;0.47;;
71083;SDS011;58741;52.672;13.548;2023-02-28T01:38:07;0.45;;;0.45;;
71083;SDS011;58741;52.672;13.548;2023-02-28T01:40:32;1.25;;;0.90;;
71083;SDS011;58741;52.672;13.548;2023-02-28T01:42:58;2.28;;;0.90;;
71083;SDS011;58741;52.672;13.548;2023-02-28T01:45:27;0.95;;;0.90;;
71083;SDS011;58741;52.672;13.548;2023-02-28T01:47:55;2.13;;;0.80;;
71083;SDS011;58741;52.672;13.548;2023-02-28T01:50:25;1.20;;;1.05;;
71083;SDS011;58741;52.672;13.548;2023-02-28T01:52:54;0.50;;;0.50;;
71083;SDS011;58741;52.672;13.548;2023-02-28T01:55:24;0.70;;;0.70;;
71083;SDS011;58741;52.672;13.548;2023-02-28T01:57:57;1.17;;;0.50;;
71083;SDS011;58741;52.672;13.548;2023-02-28T02:00:26;0.50;;;0.40;;
71083;SDS011;58741;52.672;13.548;2023-02-28T02:02:54;0.70;;;0.60;;
71083;SDS011;58741;52.672;13.548;2023-02-28T02:05:27;2.50;;;0.85;;
71083;SDS011;58741;52.672;13.548;2023-02-28T02:07:56;1.77;;;0.63;;
71083;SDS011;58741;52.672;13.548;2023-02-28T02:10:36;2.03;;;0.70;;
71083;SDS011;58741;52.672;13.548;2023-02-28T02:18:44;0.52;;;0.43;;
71083;SDS011;58741;52.672;13.548;2023-02-28T02:24:41;1.10;;;0.75;;
71083;SDS011;58741;52.672;13.548;2023-02-28T02:33:06;1.20;;;0.98;;
71083;SDS011;58741;52.672;13.548;2023-02-28T02:41:26;1.80;;;0.75;;
71083;SDS011;58741;52.672;13.548;2023-02-28T02:44:11;1.95;;;0.90;;
71083;SDS011;58741;52.672;13.548;2023-02-28T02:46:43;0.63;;;0.63;;
71083;SDS011;58741;52.672;13.548;2023-02-28T02:49:15;2.60;;;0.50;;
71083;SDS011;58741;52.672;13.548;2023-02-28T02:51:46;3.25;;;0.70;;
71083;SDS011;58741;52.672;13.548;2023-02-28T02:56:42;1.35;;;0.60;;
71083;SDS011;58741;52.672;13.548;2023-02-28T02:59:11;1.20;;;0.80;;
71083;SDS011;58741;52.672;13.548;2023-02-28T03:01:46;1.30;;;0.93;;
71083;SDS011;58741;52.672;13.548;2023-02-28T03:04:17;2.15;;;0.93;;
71083;SDS011;58741;52.672;13.548;2023-02-28T03:06:46;1.13;;;0.60;;
71083;SDS011;58741;52.672;13.548;2023-02-28T03:09:12;1.52;;;0.90;;
71083;SDS011;58741;52.672;13.548;2023-02-28T03:11:38;1.30;;;0.70;;
71083;SDS011;58741;52.672;13.548;2023-02-28T03:16:52;0.88;;;0.60;;
71083;SDS011;58741;52.672;13.548;2023-02-28T03:22:29;0.70;;;0.40;;
71083;SDS011;58741;52.672;13.548;2023-02-28T03:25:37;1.15;;;0.82;;
71083;SDS011;58741;52.672;13.548;2023-02-28T03:28:13;0.85;;;0.35;;
71083;SDS011;58741;52.672;13.548;2023-02-28T03:33:37;1.52;;;0.50;;
71083;SDS011;58741;52.672;13.548;2023-02-28T03:38:39;1.27;;;0.75;;
71083;SDS011;58741;52.672;13.548;2023-02-28T03:41:35;1.48;;;0.75;;
71083;SDS011;58741;52.672;13.548;2023-02-28T03:44:15;1.83;;;0.77;;
71083;SDS011;58741;52.672;13.548;2023-02-28T03:46:51;1.75;;;0.85;;
71083;SDS011;58741;52.672;13.548;2023-02-28T03:49:23;0.40;;;0.40;;
71083;SDS011;58741;52.672;13.548;2023-02-28T03:51:52;0.50;;;0.50;;
71083;SDS011;58741;52.672;13.548;2023-02-28T03:54:25;1.33;;;0.70;;
71083;SDS011;58741;52.672;13.548;2023-02-28T03:59:43;1.70;;;0.85;;
71083;SDS011;58741;52.672;13.548;2023-02-28T04:02:14;0.70;;;0.70;;
71083;SDS011;58741;52.672;13.548;2023-02-28T04:04:40;1.08;;;0.63;;
71083;SDS011;58741;52.672;13.548;2023-02-28T04:07:10;1.00;;;0.65;;
71083;SDS011;58741;52.672;13.548;2023-02-28T04:09:36;0.55;;;0.38;;
71083;SDS011;58741;52.672;13.548;2023-02-28T04:12:02;0.85;;;0.57;;
71083;SDS011;58741;52.672;13.548;2023-02-28T04:14:28;1.00;;;0.65;;
71083;SDS011;58741;52.672;13.548;2023-02-28T04:16:54;0.40;;;0.40;;
71083;SDS011;58741;52.672;13.548;2023-02-28T04:19:20;3.28;;;0.85;;
71083;SDS011;58741;52.672;13.548;2023-02-28T04:21:50;1.13;;;0.98;;
71083;SDS011;58741;52.672;13.548;2023-02-28T04:24:17;0.80;;;0.70;;
71083;SDS011;58741;52.672;13.548;2023-02-28T04:26:45;0.75;;;0.45;;
71083;SDS011;58741;52.672;13.548;2023-02-28T04:29:13;0.50;;;0.50;;
71083;SDS011;58741;52.672;13.548;2023-02-28T04:31:42;0.90;;;0.80;;
71083;SDS011;58741;52.672;13.548;2023-02-28T04:34:08;1.08;;;0.70;;
71083;SDS011;58741;52.672;13.548;2023-02-28T04:36:33;0.60;;;0.30;;
71083;SDS011;58741;52.672;13.548;2023-02-28T04:38:59;2.75;;;0.90;;
71083;SDS011;58741;52.672;13.548;2023-02-28T04:41:25;4.20;;;0.47;;
71083;SDS011;58741;52.672;13.548;2023-02-28T04:43:51;1.33;;;0.65;;
71083;SDS011;58741;52.672;13.548;2023-02-28T04:46:17;0.85;;;0.50;;
71083;SDS011;58741;52.672;13.548;2023-02-28T04:48:43;0.50;;;0.47;;
71083;SDS011;58741;52.672;13.548;2023-02-28T04:51:13;1.13;;;0.88;;
71083;SDS011;58741;52.672;13.548;2023-02-28T04:53:41;0.60;;;0.50;;
71083;SDS011;58741;52.672;13.548;2023-02-28T04:56:07;1.38;;;0.70;;
71083;SDS011;58741;52.672;13.548;2023-02-28T04:58:35;1.25;;;0.82;;
71083;SDS011;58741;52.672;13.548;2023-02-28T05:01:02;0.75;;;0.75;;
71083;SDS011;58741;52.672;13.548;2023-02-28T05:03:29;0.50;;;0.50;;
71083;SDS011;58741;52.672;13.548;2023-02-28T05:05:55;1.45;;;1.00;;
71083;SDS011;58741;52.672;13.548;2023-02-28T05:08:20;1.13;;;0.80;;
71083;SDS011;58741;52.672;13.548;2023-02-28T05:10:46;0.80;;;0.73;;
71083;SDS011;58741;52.672;13.548;2023-02-28T05:13:12;0.77;;;0.70;;
71083;SDS011;58741;52.672;13.548;2023-02-28T05:15:37;1.48;;;1.00;;
71083;SDS011;58741;52.672;13.548;2023-02-28T05:18:03;0.43;;;0.43;;
71083;SDS011;58741;52.672;13.548;2023-02-28T05:20:29;1.30;;;0.80;;
71083;SDS011;58741;52.672;13.548;2023-02-28T05:23:02;2.20;;;1.15;;
71083;SDS011;58741;52.672;13.548;2023-02-28T05:25:28;2.88;;;1.35;;
71083;SDS011;58741;52.672;13.548;2023-02-28T05:27:53;2.47;;;1.27;;
71083;SDS011;58741;52.672;13.548;2023-02-28T05:30:19;2.47;;;1.70;;
71083;SDS011;58741;52.672;13.548;2023-02-28T05:32:49;2.92;;;1.40;;
71083;SDS011;58741;52.672;13.548;2023-02-28T05:35:15;2.90;;;1.20;;
71083;SDS011;58741;52.672;13.548;2023-02-28T05:37:41;2.13;;;1.23;;
71083;SDS011;58741;52.672;13.548;2023-02-28T05:40:07;2.55;;;1.27;;
71083;SDS011;58741;52.672;13.548;2023-02-28T05:42:36;3.50;;;1.17;;
71083;SDS011;58741;52.672;13.548;2023-02-28T05:45:02;1.70;;;1.02;;
71083;SDS011;58741;52.672;13.548;2023-02-28T05:47:29;2.38;;;1.23;;
71083;SDS011;58741;52.672;13.548;2023-02-28T05:49:54;5.10;;;1.60;;
71083;SDS011;58741;52.672;13.548;2023-02-28T05:52:20;3.57;;;1.30;;
71083;SDS011;58741;52.672;13.548;2023-02-28T05:54:46;1.02;;;0.90;;
71083;SDS011;58741;52.672;13.548;2023-02-28T05:57:11;2.10;;;1.20;;
71083;SDS011;58741;52.672;13.548;2023-02-28T05:59:37;1.48;;;1.00;;
71083;SDS011;58741;52.672;13.548;2023-02-28T06:02:05;2.38;;;1.13;;
71083;SDS011;58741;52.672;13.548;2023-02-28T06:04:35;1.10;;;0.80;;
71083;SDS011;58741;52.672;13.548;2023-02-28T06:07:01;2.17;;;0.97;;
71083;SDS011;58741;52.672;13.548;2023-02-28T06:09:26;3.15;;;1.30;;
71083;SDS011;58741;52.672;13.548;2023-02-28T06:11:52;2.60;;;1.27;;
71083;SDS011;58741;52.672;13.548;2023-02-28T06:14:19;1.30;;;1.20;;
71083;SDS011;58741;52.672;13.548;2023-02-28T06:16:45;1.75;;;0.93;;
71083;SDS011;58741;52.672;13.548;2023-02-28T06:19:11;2.40;;;1.10;;
71083;SDS011;58741;52.672;13.548;2023-02-28T06:21:38;1.90;;;1.30;;
71083;SDS011;58741;52.672;13.548;2023-02-28T06:24:04;2.20;;;1.10;;
71083;SDS011;58741;52.672;13.548;2023-02-28T06:26:30;1.70;;;0.93;;
71083;SDS011;58741;52.672;13.548;2023-02-28T06:28:55;10.57;;;1.15;;
71083;SDS011;58741;52.672;13.548;2023-02-28T06:31:21;1.03;;;0.70;;
71083;SDS011;58741;52.672;13.548;2023-02-28T06:33:47;1.33;;;0.85;;
71083;SDS011;58741;52.672;13.548;2023-02-28T06:36:13;2.33;;;1.25;;
71083;SDS011;58741;52.672;13.548;2023-02-28T06:38:40;1.23;;;1.13;;
71083;SDS011;58741;52.672;13.548;2023-02-28T06:41:06;1.53;;;0.90;;
71083;SDS011;58741;52.672;13.548;2023-02-28T06:43:33;0.93;;;0.70;;
71083;SDS011;58741;52.672;13.548;2023-02-28T06:46:03;1.05;;;0.73;;
71083;SDS011;58741;52.672;13.548;2023-02-28T06:48:31;1.48;;;0.85;;
71083;SDS011;58741;52.672;13.548;2023-02-28T06:53:52;1.43;;;1.07;;
71083;SDS011;58741;52.672;13.548;2023-02-28T06:56:17;0.97;;;0.57;;
71083;SDS011;58741;52.672;13.548;2023-02-28T06:58:48;1.55;;;0.95;;
71083;SDS011;58741;52.672;13.548;2023-02-28T07:01:15;1.83;;;0.80;;
71083;SDS011;58741;52.672;13.548;2023-02-28T07:03:41;4.80;;;1.02;;
71083;SDS011;58741;52.672;13.548;2023-02-28T07:06:07;1.25;;;0.90;;
71083;SDS011;58741;52.672;13.548;2023-02-28T07:08:33;3.40;;;1.20;;
71083;SDS011;58741;52.672;13.548;2023-02-28T07:10:59;0.83;;;0.67;;
71083;SDS011;58741;52.672;13.548;2023-02-28T07:13:25;1.60;;;0.83;;
71083;SDS011;58741;52.672;13.548;2023-02-28T07:15:54;2.92;;;1.23;;
71083;SDS011;58741;52.672;13.548;2023-02-28T07:18:24;1.60;;;0.73;;
71083;SDS011;58741;52.672;13.548;2023-02-28T07:20:50;1.77;;;1.00;;
71083;SDS011;58741;52.672;13.548;2023-02-28T07:23:16;2.47;;;1.30;;
71083;SDS011;58741;52.672;13.548;2023-02-28T07:25:42;1.98;;;1.08;;
71083;SDS011;58741;52.672;13.548;2023-02-28T07:28:08;2.53;;;1.15;;
71083;SDS011;58741;52.672;13.548;2023-02-28T07:30:34;2.53;;;1.42;;
71083;SDS011;58741;52.672;13.548;2023-02-28T07:32:59;1.95;;;0.88;;
71083;SDS011;58741;52.672;13.548;2023-02-28T07:35:25;1.35;;;0.80;;
71083;SDS011;58741;52.672;13.548;2023-02-28T07:37:51;2.40;;;1.25;;
71083;SDS011;58741;52.672;13.548;2023-02-28T07:40:16;2.13;;;0.80;;
71083;SDS011;58741;52.672;13.548;2023-02-28T07:42:43;2.72;;;1.27;;
71083;SDS011;58741;52.672;13.548;2023-02-28T07:45:10;3.90;;;1.92;;
71083;SDS011;58741;52.672;13.548;2023-02-28T07:47:39;1.45;;;1.15;;
71083;SDS011;58741;52.672;13.548;2023-02-28T07:50:07;2.15;;;1.38;;
71083;SDS011;58741;52.672;13.548;2023-02-28T07:52:35;2.15;;;1.25;;
71083;SDS011;58741;52.672;13.548;2023-02-28T07:55:01;3.03;;;1.75;;
71083;SDS011;58741;52.672;13.548;2023-02-28T07:57:27;3.92;;;2.13;;
71083;SDS011;58741;52.672;13.548;2023-02-28T07:59:52;2.88;;;1.17;;
71083;SDS011;58741;52.672;13.548;2023-02-28T08:02:18;3.97;;;1.27;;
71083;SDS011;58741;52.672;13.548;2023-02-28T08:04:44;5.65;;;1.73;;
71083;SDS011;58741;52.672;13.548;2023-02-28T08:07:12;2.42;;;1.40;;
71083;SDS011;58741;52.672;13.548;2023-02-28T08:09:38;2.50;;;1.70;;
71083;SDS011;58741;52.672;13.548;2023-02-28T08:12:04;2.58;;;1.50;;
71083;SDS011;58741;52.672;13.548;2023-02-28T08:14:30;5.45;;;2.20;;
71083;SDS011;58741;52.672;13.548;2023-02-28T08:16:56;2.47;;;1.27;;
71083;SDS011;58741;52.672;13.548;2023-02-28T08:19:22;2.47;;;1.50;;
71083;SDS011;58741;52.672;13.548;2023-02-28T08:21:47;1.90;;;1.00;;
71083;SDS011;58741;52.672;13.548;2023-02-28T08:24:13;1.60;;;1.30;;
71083;SDS011;58741;52.672;13.548;2023-02-28T08:26:38;2.85;;;1.70;;
71083;SDS011;58741;52.672;13.548;2023-02-28T08:29:04;3.13;;;1.63;;
71083;SDS011;58741;52.672;13.548;2023-02-28T08:31:29;1.80;;;1.52;;
71083;SDS011;58741;52.672;13.548;2023-02-28T08:33:55;2.20;;;1.50;;
71083;SDS011;58741;52.672;13.548;2023-02-28T08:36:23;2.78;;;1.85;;
71083;SDS011;58741;52.672;13.548;2023-02-28T08:38:50;1.98;;;1.08;;
71083;SDS011;58741;52.672;13.548;2023-02-28T08:41:16;2.13;;;1.40;;
71083;SDS011;58741;52.672;13.548;2023-02-28T08:43:41;4.43;;;1.55;;
71083;SDS011;58741;52.672;13.548;2023-02-28T08:46:07;1.23;;;1.00;;
71083;SDS011;58741;52.672;13.548;2023-02-28T08:48:36;2.80;;;0.82;;
71083;SDS011;58741;52.672;13.548;2023-02-28T08:51:10;2.33;;;1.02;;
71083;SDS011;58741;52.672;13.548;2023-02-28T08:53:38;1.25;;;0.82;;
71083;SDS011;58741;52.672;13.548;2023-02-28T08:56:06;1.27;;;0.95;;
71083;SDS011;58741;52.672;13.548;2023-02-28T08:58:41;0.55;;;0.55;;
71083;SDS011;58741;52.672;13.548;2023-02-28T09:01:07;1.08;;;0.90;;
71083;SDS011;58741;52.672;13.548;2023-02-28T09:03:34;0.85;;;0.68;;
71083;SDS011;58741;52.672;13.548;2023-02-28T09:06:00;0.47;;;0.47;;
71083;SDS011;58741;52.672;13.548;2023-02-28T09:08:27;0.35;;;0.35;;
71083;SDS011;58741;52.672;13.548;2023-02-28T09:10:54;0.90;;;0.80;;
71083;SDS011;58741;52.672;13.548;2023-02-28T09:13:22;0.50;;;0.50;;
71083;SDS011;58741;52.672;13.548;2023-02-28T09:15:47;2.90;;;0.98;;
71083;SDS011;58741;52.672;13.548;2023-02-28T09:18:13;0.70;;;0.70;;
71083;SDS011;58741;52.672;13.548;2023-02-28T09:20:40;1.38;;;0.82;;
71083;SDS011;58741;52.672;13.548;2023-02-28T09:23:07;0.70;;;0.60;;
71083;SDS011;58741;52.672;13.548;2023-02-28T09:25:34;2.20;;;0.77;;
71083;SDS011;58741;52.672;13.548;2023-02-28T09:28:00;1.23;;;0.88;;
71083;SDS011;58741;52.672;13.548;2023-02-28T09:30:26;1.38;;;0.63;;
71083;SDS011;58741;52.672;13.548;2023-02-28T09:32:52;2.13;;;1.02;;
71083;SDS011;58741;52.672;13.548;2023-02-28T09:35:21;1.30;;;0.70;;
71083;SDS011;58741;52.672;13.548;2023-02-28T09:37:48;0.60;;;0.35;;
71083;SDS011;58741;52.672;13.548;2023-02-28T09:40:16;0.85;;;0.65;;
71083;SDS011;58741;52.672;13.548;2023-02-28T09:42:45;0.55;;;0.55;;
71083;SDS011;58741;52.672;13.548;2023-02-28T09:45:23;0.98;;;0.77;;
71083;SDS011;58741;52.672;13.548;2023-02-28T09:47:54;0.75;;;0.60;;
71083;SDS011;58741;52.672;13.548;2023-02-28T09:53:05;0.60;;;0.52;;
71083;SDS011;58741;52.672;13.548;2023-02-28T09:55:51;1.27;;;0.75;;
71083;SDS011;58741;52.672;13.548;2023-02-28T10:01:00;1.90;;;0.60;;
71083;SDS011;58741;52.672;13.548;2023-02-28T10:03:41;0.88;;;0.60;;
71083;SDS011;58741;52.672;13.548;2023-02-28T10:06:19;0.73;;;0.40;;
71083;SDS011;58741;52.672;13.548;2023-02-28T10:09:10;0.43;;;0.32;;
71083;SDS011;58741;52.672;13.548;2023-02-28T10:11:53;0.82;;;0.60;;
71083;SDS011;58741;52.672;13.548;2023-02-28T10:14:22;1.42;;;0.77;;
71083;SDS011;58741;52.672;13.548;2023-02-28T10:16:53;0.50;;;0.50;;
71083;SDS011;58741;52.672;13.548;2023-02-28T10:19:28;4.40;;;0.60;;
71083;SDS011;58741;52.672;13.548;2023-02-28T10:22:19;0.63;;;0.63;;
71083;SDS011;58741;52.672;13.548;2023-02-28T10:24:50;0.60;;;0.60;;
71083;SDS011;58741;52.672;13.548;2023-02-28T10:27:24;0.65;;;0.50;;
71083;SDS011;58741;52.672;13.548;2023-02-28T10:29:54;0.75;;;0.70;;
71083;SDS011;58741;52.672;13.548;2023-02-28T10:32:25;1.45;;;0.52;;
71083;SDS011;58741;52.672;13.548;2023-02-28T10:35:00;0.73;;;0.65;;
71083;SDS011;58741;52.672;13.548;2023-02-28T10:37:39;1.40;;;0.60;;
71083;SDS011;58741;52.672;13.548;2023-02-28T10:40:07;0.45;;;0.40;;
71083;SDS011;58741;52.672;13.548;2023-02-28T10:43:06;1.00;;;0.73;;
71083;SDS011;58741;52.672;13.548;2023-02-28T10:46:24;1.20;;;0.60;;
71083;SDS011;58741;52.672;13.548;2023-02-28T10:48:34;0.63;;;0.43;;
71083;SDS011;58741;52.672;13.548;2023-02-28T10:51:03;1.27;;;0.60;;
71083;SDS011;58741;52.672;13.548;2023-02-28T11:01:39;3.05;;;0.60;;
71083;SDS011;58741;52.672;13.548;2023-02-28T11:04:19;0.30;;;0.30;;
71083;SDS011;58741;52.672;13.548;2023-02-28T11:06:46;1.35;;;0.65;;
71083;SDS011;58741;52.672;13.548;2023-02-28T11:09:23;1.70;;;0.70;;
71083;SDS011;58741;52.672;13.548;2023-02-28T11:12:07;0.60;;;0.60;;
71083;SDS011;58741;52.672;13.548;2023-02-28T11:14:47;1.42;;;0.43;;
71083;SDS011;58741;52.672;13.548;2023-02-28T11:17:20;3.13;;;0.80;;
71083;SDS011;58741;52.672;13.548;2023-02-28T11:19:49;0.90;;;0.70;;
71083;SDS011;58741;52.672;13.548;2023-02-28T11:22:18;0.95;;;0.60;;
71083;SDS011;58741;52.672;13.548;2023-02-28T11:24:47;1.27;;;0.65;;
71083;SDS011;58741;52.672;13.548;2023-02-28T11:27:24;1.15;;;0.70;;
71083;SDS011;58741;52.672;13.548;2023-02-28T11:30:22;0.63;;;0.52;;
71083;SDS011;58741;52.672;13.548;2023-02-28T11:32:49;1.00;;;0.60;;
71083;SDS011;58741;52.672;13.548;2023-02-28T11:35:21;1.23;;;0.70;;
71083;SDS011;58741;52.672;13.548;2023-02-28T11:37:56;1.25;;;0.65;;
71083;SDS011;58741;52.672;13.548;2023-02-28T11:41:06;3.60;;;0.88;;
71083;SDS011;58741;52.672;13.548;2023-02-28T11:49:06;0.70;;;0.70;;
71083;SDS011;58741;52.672;13.548;2023-02-28T11:51:49;1.08;;;0.45;;
71083;SDS011;58741;52.672;13.548;2023-02-28T12:00:34;0.40;;;0.40;;
71083;SDS011;58741;52.672;13.548;2023-02-28T12:03:11;2.17;;;0.65;;
71083;SDS011;58741;52.672;13.548;2023-02-28T12:11:48;0.57;;;0.52;;
71083;SDS011;58741;52.672;13.548;2023-02-28T12:17:13;1.17;;;0.65;;
71083;SDS011;58741;52.672;13.548;2023-02-28T12:22:28;0.55;;;0.55;;
71083;SDS011;58741;52.672;13.548;2023-02-28T12:27:40;0.98;;;0.60;;
71083;SDS011;58741;52.672;13.548;2023-02-28T12:30:26;0.60;;;0.50;;
71083;SDS011;58741;52.672;13.548;2023-02-28T12:32:56;1.23;;;0.70;;
71083;SDS011;58741;52.672;13.548;2023-02-28T12:35:33;1.42;;;0.50;;
71083;SDS011;58741;52.672;13.548;2023-02-28T12:38:05;0.70;;;0.60;;
71083;SDS011;58741;52.672;13.548;2023-02-28T12:43:07;0.63;;;0.60;;
71083;SDS011;58741;52.672;13.548;2023-02-28T12:45:39;1.23;;;0.93;;
71083;SDS011;58741;52.672;13.548;2023-02-28T12:48:09;0.63;;;0.43;;
71083;SDS011;58741;52.672;13.548;2023-02-28T12:50:39;1.55;;;0.80;;
71083;SDS011;58741;52.672;13.548;2023-02-28T12:53:17;0.88;;;0.57;;
71083;SDS011;58741;52.672;13.548;2023-02-28T13:09:40;1.52;;;0.73;;
71083;SDS011;58741;52.672;13.548;2023-02-28T13:12:16;1.67;;;0.70;;
71083;SDS011;58741;52.672;13.548;2023-02-28T13:14:42;0.60;;;0.57;;
71083;SDS011;58741;52.672;13.548;2023-02-28T13:19:44;4.20;;;1.10;;
71083;SDS011;58741;52.672;13.548;2023-02-28T13:22:19;1.75;;;0.85;;
71083;SDS011;58741;52.672;13.548;2023-02-28T13:25:51;0.98;;;0.80;;
71083;SDS011;58741;52.672;13.548;2023-02-28T13:28:10;1.75;;;0.85;;
71083;SDS011;58741;52.672;13.548;2023-02-28T13:33:27;1.33;;;0.70;;
71083;SDS011;58741;52.672;13.548;2023-02-28T13:38:35;1.38;;;0.68;;
71083;SDS011;58741;52.672;13.548;2023-02-28T13:44:13;1.27;;;0.93;;
71083;SDS011;58741;52.672;13.548;2023-02-28T13:49:31;0.60;;;0.55;;
71083;SDS011;58741;52.672;13.548;2023-02-28T14:00:37;5.55;;;1.08;;
71083;SDS011;58741;52.672;13.548;2023-02-28T14:05:43;4.50;;;1.20;;
71083;SDS011;58741;52.672;13.548;2023-02-28T14:08:14;1.73;;;1.10;;
71083;SDS011;58741;52.672;13.548;2023-02-28T14:10:50;1.63;;;0.90;;
71083;SDS011;58741;52.672;13.548;2023-02-28T14:16:10;3.03;;;0.90;;
71083;SDS011;58741;52.672;13.548;2023-02-28T14:18:55;0.70;;;0.70;;
71083;SDS011;58741;52.672;13.548;2023-02-28T14:21:33;0.80;;;0.50;;
71083;SDS011;58741;52.672;13.548;2023-02-28T14:27:06;0.98;;;0.88;;
71083;SDS011;58741;52.672;13.548;2023-02-28T14:38:04;1.98;;;1.08;;
71083;SDS011;58741;52.672;13.548;2023-02-28T14:40:33;2.95;;;1.33;;
71083;SDS011;58741;52.672;13.548;2023-02-28T14:43:04;3.97;;;1.65;;
71083;SDS011;58741;52.672;13.548;2023-02-28T14:45:32;0.73;;;0.68;;
71083;SDS011;58741;52.672;13.548;2023-02-28T14:48:01;3.03;;;1.23;;
71083;SDS011;58741;52.672;13.548;2023-02-28T14:50:31;0.95;;;0.77;;
71083;SDS011;58741;52.672;13.548;2023-02-28T14:52:59;0.98;;;0.75;;
71083;SDS011;58741;52.672;13.548;2023-02-28T14:55:28;1.40;;;1.10;;
71083;SDS011;58741;52.672;13.548;2023-02-28T14:57:59;0.88;;;0.70;;
71083;SDS011;58741;52.672;13.548;2023-02-28T15:00:34;1.15;;;0.80;;
71083;SDS011;58741;52.672;13.548;2023-02-28T15:03:17;1.23;;;1.13;;
71083;SDS011;58741;52.672;13.548;2023-02-28T15:05:54;1.92;;;1.08;;
71083;SDS011;58741;52.672;13.548;2023-02-28T15:08:22;0.98;;;0.95;;
71083;SDS011;58741;52.672;13.548;2023-02-28T15:10:53;1.10;;;0.98;;
71083;SDS011;58741;52.672;13.548;2023-02-28T15:13:44;3.97;;;1.67;;
71083;SDS011;58741;52.672;13.548;2023-02-28T15:16:12;0.80;;;0.80;;
71083;SDS011;58741;52.672;13.548;2023-02-28T15:18:49;2.40;;;0.90;;
71083;SDS011;58741;52.672;13.548;2023-02-28T15:21:27;1.10;;;0.82;;
71083;SDS011;58741;52.672;13.548;2023-02-28T15:26:51;1.42;;;0.90;;
71083;SDS011;58741;52.672;13.548;2023-02-28T15:29:22;0.60;;;0.60;;
71083;SDS011;58741;52.672;13.548;2023-02-28T15:31:51;1.13;;;0.80;;
71083;SDS011;58741;52.672;13.548;2023-02-28T15:37:00;1.67;;;1.10;;
71083;SDS011;58741;52.672;13.548;2023-02-28T15:39:27;1.52;;;1.00;;
71083;SDS011;58741;52.672;13.548;2023-02-28T15:42:09;1.40;;;0.85;;
71083;SDS011;58741;52.672;13.548;2023-02-28T15:44:37;1.00;;;0.82;;
71083;SDS011;58741;52.672;13.548;2023-02-28T15:47:04;1.98;;;0.90;;
71083;SDS011;58741;52.672;13.548;2023-02-28T15:49:36;0.82;;;0.70;;
71083;SDS011;58741;52.672;13.548;2023-02-28T15:52:33;1.42;;;0.85;;
71083;SDS011;58741;52.672;13.548;2023-02-28T15:55:15;1.75;;;1.25;;
71083;SDS011;58741;52.672;13.548;2023-02-28T15:57:46;1.05;;;0.95;;
71083;SDS011;58741;52.672;13.548;2023-02-28T16:00:16;1.55;;;0.98;;
71083;SDS011;58741;52.672;13.548;2023-02-28T16:02:45;3.30;;;0.98;;
71083;SDS011;58741;52.672;13.548;2023-02-28T16:07:41;0.63;;;0.60;;
71083;SDS011;58741;52.672;13.548;2023-02-28T16:10:09;2.53;;;1.50;;
71083;SDS011;58741;52.672;13.548;2023-02-28T16:12:37;2.03;;;0.90;;
71083;SDS011;58741;52.672;13.548;2023-02-28T16:15:08;2.45;;;1.23;;
71083;SDS011;58741;52.672;13.548;2023-02-28T16:17:43;1.48;;;0.85;;
71083;SDS011;58741;52.672;13.548;2023-02-28T16:22:39;2.90;;;1.00;;
71083;SDS011;58741;52.672;13.548;2023-02-28T16:25:04;0.98;;;0.88;;
71083;SDS011;58741;52.672;13.548;2023-02-28T16:27:34;1.33;;;1.23;;
71083;SDS011;58741;52.672;13.548;2023-02-28T16:30:03;1.80;;;1.20;;
71083;SDS011;58741;52.672;13.548;2023-02-28T16:32:30;1.58;;;0.93;;
71083;SDS011;58741;52.672;13.548;2023-02-28T16:34:58;1.50;;;1.15;;
71083;SDS011;58741;52.672;13.548;2023-02-28T16:37:24;1.58;;;0.95;;
71083;SDS011;58741;52.672;13.548;2023-02-28T16:39:49;0.93;;;0.90;;
71083;SDS011;58741;52.672;13.548;2023-02-28T16:42:18;1.63;;;1.25;;
71083;SDS011;58741;52.672;13.548;2023-02-28T16:44:48;2.17;;;1.30;;
71083;SDS011;58741;52.672;13.548;2023-02-28T16:47:14;1.13;;;0.95;;
71083;SDS011;58741;52.672;13.548;2023-02-28T16:49:40;1.58;;;1.00;;
71083;SDS011;58741;52.672;13.548;2023-02-28T16:52:08;2.70;;;1.30;;
71083;SDS011;58741;52.672;13.548;2023-02-28T16:54:36;3.00;;;1.65;;
71083;SDS011;58741;52.672;13.548;2023-02-28T16:57:03;1.80;;;1.02;;
71083;SDS011;58741;52.672;13.548;2023-02-28T16:59:30;1.95;;;1.40;;
71083;SDS011;58741;52.672;13.548;2023-02-28T17:01:56;1.38;;;1.00;;
71083;SDS011;58741;52.672;13.548;2023-02-28T17:04:23;1.70;;;1.35;;
71083;SDS011;58741;52.672;13.548;2023-02-28T17:06:50;2.25;;;1.48;;
71083;SDS011;58741;52.672;13.548;2023-02-28T17:09:20;6.00;;;1.98;;
71083;SDS011;58741;52.672;13.548;2023-02-28T17:11:47;2.72;;;1.35;;
71083;SDS011;58741;52.672;13.548;2023-02-28T17:14:13;3.40;;;1.90;;